<?xml version="1.0" encoding="utf-8"?>
<gpx xmlns:xsi="http://www.w3.org/2001/XMLSchema-instance" xmlns:xsd="http://www.w3.org/2001/XMLSchema" version="1.1" creator="Shapelink.com" xmlns="http://www.topografix.com/GPX/1/1" xmlns:gpxtpx="http://www.garmin.com/xmlschemas/TrackPointExtension/v1">
  <metadata>
    <name>Løping 4.20 km, 2012-04-19</name>
    <desc></desc>
    <author><name>Mikael Blom</name></author> 
    <time>2012-04-19T19:23:23Z</time>
  </metadata>
  <trk>
    <name>Løping 4.20 km, 2012-04-19</name>
    <trkseg>
      <trkpt lat="59.9760886" lon="17.7396195">
        <ele>24.651</ele>
        <time>2012-04-19T19:23:23Z</time>
      </trkpt>
      <trkpt lat="59.9759771" lon="17.7394746">
        <ele>22.7283</ele>
        <time>2012-04-19T19:23:27Z</time>
      </trkpt>
      <trkpt lat="59.9758829" lon="17.7393028">
        <ele>21.2864</ele>
        <time>2012-04-19T19:23:31Z</time>
      </trkpt>
      <trkpt lat="59.9758204" lon="17.7391716">
        <ele>20.8057</ele>
        <time>2012-04-19T19:23:34Z</time>
      </trkpt>
      <trkpt lat="59.9757954" lon="17.7391268">
        <ele>20.8057</ele>
        <time>2012-04-19T19:23:35Z</time>
      </trkpt>
      <trkpt lat="59.9756809" lon="17.7389032">
        <ele>21.2864</ele>
        <time>2012-04-19T19:23:40Z</time>
      </trkpt>
      <trkpt lat="59.975569" lon="17.7387147">
        <ele>21.2864</ele>
        <time>2012-04-19T19:23:45Z</time>
      </trkpt>
      <trkpt lat="59.9755513" lon="17.7386678">
        <ele>21.2864</ele>
        <time>2012-04-19T19:23:46Z</time>
      </trkpt>
      <trkpt lat="59.9754341" lon="17.7384348">
        <ele>21.2864</ele>
        <time>2012-04-19T19:23:52Z</time>
      </trkpt>
      <trkpt lat="59.9753509" lon="17.7382937">
        <ele>21.2864</ele>
        <time>2012-04-19T19:23:56Z</time>
      </trkpt>
      <trkpt lat="59.9752431" lon="17.7381192">
        <ele>21.767</ele>
        <time>2012-04-19T19:24:01Z</time>
      </trkpt>
      <trkpt lat="59.975128" lon="17.737919">
        <ele>23.209</ele>
        <time>2012-04-19T19:24:06Z</time>
      </trkpt>
      <trkpt lat="59.9750218" lon="17.7377147">
        <ele>23.209</ele>
        <time>2012-04-19T19:24:11Z</time>
      </trkpt>
      <trkpt lat="59.9749374" lon="17.7375553">
        <ele>23.6896</ele>
        <time>2012-04-19T19:24:15Z</time>
      </trkpt>
      <trkpt lat="59.9748483" lon="17.7373494">
        <ele>24.1703</ele>
        <time>2012-04-19T19:24:20Z</time>
      </trkpt>
      <trkpt lat="59.9747698" lon="17.7371458">
        <ele>25.1317</ele>
        <time>2012-04-19T19:24:25Z</time>
      </trkpt>
      <trkpt lat="59.9746888" lon="17.7369407">
        <ele>25.6123</ele>
        <time>2012-04-19T19:24:30Z</time>
      </trkpt>
      <trkpt lat="59.9746154" lon="17.7367321">
        <ele>26.5736</ele>
        <time>2012-04-19T19:24:35Z</time>
      </trkpt>
      <trkpt lat="59.9745331" lon="17.7364756">
        <ele>27.5349</ele>
        <time>2012-04-19T19:24:41Z</time>
      </trkpt>
      <trkpt lat="59.9744787" lon="17.7362505">
        <ele>27.5349</ele>
        <time>2012-04-19T19:24:46Z</time>
      </trkpt>
      <trkpt lat="59.9744335" lon="17.7360744">
        <ele>28.4962</ele>
        <time>2012-04-19T19:24:50Z</time>
      </trkpt>
      <trkpt lat="59.974364" lon="17.7357867">
        <ele>29.4575</ele>
        <time>2012-04-19T19:24:56Z</time>
      </trkpt>
      <trkpt lat="59.9743149" lon="17.7355493">
        <ele>30.4188</ele>
        <time>2012-04-19T19:25:01Z</time>
      </trkpt>
      <trkpt lat="59.9742723" lon="17.7352268">
        <ele>31.8607</ele>
        <time>2012-04-19T19:25:07Z</time>
      </trkpt>
      <trkpt lat="59.9742361" lon="17.7349194">
        <ele>31.8607</ele>
        <time>2012-04-19T19:25:13Z</time>
      </trkpt>
      <trkpt lat="59.9742221" lon="17.7346187">
        <ele>31.3801</ele>
        <time>2012-04-19T19:25:19Z</time>
      </trkpt>
      <trkpt lat="59.9742201" lon="17.734369">
        <ele>30.4188</ele>
        <time>2012-04-19T19:25:24Z</time>
      </trkpt>
      <trkpt lat="59.9742263" lon="17.7340757">
        <ele>29.9381</ele>
        <time>2012-04-19T19:25:30Z</time>
      </trkpt>
      <trkpt lat="59.9742387" lon="17.7337868">
        <ele>28.9769</ele>
        <time>2012-04-19T19:25:36Z</time>
      </trkpt>
      <trkpt lat="59.9742643" lon="17.7334894">
        <ele>28.4962</ele>
        <time>2012-04-19T19:25:42Z</time>
      </trkpt>
      <trkpt lat="59.9742843" lon="17.7331852">
        <ele>28.4962</ele>
        <time>2012-04-19T19:25:48Z</time>
      </trkpt>
      <trkpt lat="59.974307" lon="17.7328925">
        <ele>28.0155</ele>
        <time>2012-04-19T19:25:54Z</time>
      </trkpt>
      <trkpt lat="59.9743175" lon="17.7326435">
        <ele>28.0155</ele>
        <time>2012-04-19T19:25:59Z</time>
      </trkpt>
      <trkpt lat="59.9743192" lon="17.7323985">
        <ele>28.4962</ele>
        <time>2012-04-19T19:26:04Z</time>
      </trkpt>
      <trkpt lat="59.9743142" lon="17.7320176">
        <ele>28.0155</ele>
        <time>2012-04-19T19:26:12Z</time>
      </trkpt>
      <trkpt lat="59.9743102" lon="17.7317375">
        <ele>27.5349</ele>
        <time>2012-04-19T19:26:18Z</time>
      </trkpt>
      <trkpt lat="59.9743113" lon="17.7313935">
        <ele>27.5349</ele>
        <time>2012-04-19T19:26:25Z</time>
      </trkpt>
      <trkpt lat="59.9743132" lon="17.7311542">
        <ele>27.0543</ele>
        <time>2012-04-19T19:26:30Z</time>
      </trkpt>
      <trkpt lat="59.9743247" lon="17.7309252">
        <ele>26.0929</ele>
        <time>2012-04-19T19:26:35Z</time>
      </trkpt>
      <trkpt lat="59.9743439" lon="17.7306729">
        <ele>26.5736</ele>
        <time>2012-04-19T19:26:40Z</time>
      </trkpt>
      <trkpt lat="59.9743641" lon="17.7303268">
        <ele>27.5349</ele>
        <time>2012-04-19T19:26:47Z</time>
      </trkpt>
      <trkpt lat="59.9743847" lon="17.7300305">
        <ele>28.4962</ele>
        <time>2012-04-19T19:26:53Z</time>
      </trkpt>
      <trkpt lat="59.9744067" lon="17.7297281">
        <ele>28.9769</ele>
        <time>2012-04-19T19:26:59Z</time>
      </trkpt>
      <trkpt lat="59.9744226" lon="17.729421">
        <ele>28.9769</ele>
        <time>2012-04-19T19:27:05Z</time>
      </trkpt>
      <trkpt lat="59.9744162" lon="17.7290293">
        <ele>29.9381</ele>
        <time>2012-04-19T19:27:12Z</time>
      </trkpt>
      <trkpt lat="59.974403" lon="17.7287461">
        <ele>29.9381</ele>
        <time>2012-04-19T19:27:17Z</time>
      </trkpt>
      <trkpt lat="59.9743889" lon="17.7284521">
        <ele>29.4575</ele>
        <time>2012-04-19T19:27:23Z</time>
      </trkpt>
      <trkpt lat="59.9743687" lon="17.7282357">
        <ele>29.4575</ele>
        <time>2012-04-19T19:27:27Z</time>
      </trkpt>
      <trkpt lat="59.9743613" lon="17.7279753">
        <ele>28.9769</ele>
        <time>2012-04-19T19:27:32Z</time>
      </trkpt>
      <trkpt lat="59.9743945" lon="17.7277317">
        <ele>28.9769</ele>
        <time>2012-04-19T19:27:37Z</time>
      </trkpt>
      <trkpt lat="59.9744631" lon="17.727569">
        <ele>29.9381</ele>
        <time>2012-04-19T19:27:41Z</time>
      </trkpt>
      <trkpt lat="59.9745716" lon="17.7274163">
        <ele>29.4575</ele>
        <time>2012-04-19T19:27:46Z</time>
      </trkpt>
      <trkpt lat="59.9746548" lon="17.7273169">
        <ele>28.4962</ele>
        <time>2012-04-19T19:27:50Z</time>
      </trkpt>
      <trkpt lat="59.9747816" lon="17.7272117">
        <ele>28.4962</ele>
        <time>2012-04-19T19:27:56Z</time>
      </trkpt>
      <trkpt lat="59.9749179" lon="17.727092">
        <ele>28.0155</ele>
        <time>2012-04-19T19:28:02Z</time>
      </trkpt>
      <trkpt lat="59.975018" lon="17.7270074">
        <ele>26.5736</ele>
        <time>2012-04-19T19:28:07Z</time>
      </trkpt>
      <trkpt lat="59.9751769" lon="17.7268706">
        <ele>24.651</ele>
        <time>2012-04-19T19:28:13Z</time>
      </trkpt>
      <trkpt lat="59.975301" lon="17.7267483">
        <ele>22.7283</ele>
        <time>2012-04-19T19:28:18Z</time>
      </trkpt>
      <trkpt lat="59.9754386" lon="17.7266641">
        <ele>21.2864</ele>
        <time>2012-04-19T19:28:23Z</time>
      </trkpt>
      <trkpt lat="59.975488" lon="17.7266171">
        <ele>20.325</ele>
        <time>2012-04-19T19:28:25Z</time>
      </trkpt>
      <trkpt lat="59.9756251" lon="17.7264876">
        <ele>18.8831</ele>
        <time>2012-04-19T19:28:31Z</time>
      </trkpt>
      <trkpt lat="59.9756712" lon="17.7264508">
        <ele>18.4023</ele>
        <time>2012-04-19T19:28:33Z</time>
      </trkpt>
      <trkpt lat="59.9758534" lon="17.7262812">
        <ele>17.9218</ele>
        <time>2012-04-19T19:28:41Z</time>
      </trkpt>
      <trkpt lat="59.9759886" lon="17.7261866">
        <ele>17.4412</ele>
        <time>2012-04-19T19:28:46Z</time>
      </trkpt>
      <trkpt lat="59.9761374" lon="17.7260498">
        <ele>17.9218</ele>
        <time>2012-04-19T19:28:52Z</time>
      </trkpt>
      <trkpt lat="59.976259" lon="17.7259545">
        <ele>17.4412</ele>
        <time>2012-04-19T19:28:57Z</time>
      </trkpt>
      <trkpt lat="59.9764038" lon="17.7257995">
        <ele>17.4412</ele>
        <time>2012-04-19T19:29:03Z</time>
      </trkpt>
      <trkpt lat="59.9765076" lon="17.7256794">
        <ele>16.9604</ele>
        <time>2012-04-19T19:29:08Z</time>
      </trkpt>
      <trkpt lat="59.9766278" lon="17.7255737">
        <ele>15.5184</ele>
        <time>2012-04-19T19:29:13Z</time>
      </trkpt>
      <trkpt lat="59.976798" lon="17.7254073">
        <ele>13.1151</ele>
        <time>2012-04-19T19:29:20Z</time>
      </trkpt>
      <trkpt lat="59.9769147" lon="17.7253018">
        <ele>11.6732</ele>
        <time>2012-04-19T19:29:25Z</time>
      </trkpt>
      <trkpt lat="59.9770245" lon="17.725195">
        <ele>11.6732</ele>
        <time>2012-04-19T19:29:30Z</time>
      </trkpt>
      <trkpt lat="59.977195" lon="17.7249983">
        <ele>12.6344</ele>
        <time>2012-04-19T19:29:37Z</time>
      </trkpt>
      <trkpt lat="59.9773033" lon="17.7249444">
        <ele>14.0764</ele>
        <time>2012-04-19T19:29:41Z</time>
      </trkpt>
      <trkpt lat="59.9774136" lon="17.7249604">
        <ele>14.557</ele>
        <time>2012-04-19T19:29:45Z</time>
      </trkpt>
      <trkpt lat="59.9775482" lon="17.7250049">
        <ele>15.999</ele>
        <time>2012-04-19T19:29:50Z</time>
      </trkpt>
      <trkpt lat="59.9776492" lon="17.7250313">
        <ele>17.4412</ele>
        <time>2012-04-19T19:29:54Z</time>
      </trkpt>
      <trkpt lat="59.9777794" lon="17.7250453">
        <ele>18.4023</ele>
        <time>2012-04-19T19:29:59Z</time>
      </trkpt>
      <trkpt lat="59.9779112" lon="17.7250909">
        <ele>20.325</ele>
        <time>2012-04-19T19:30:04Z</time>
      </trkpt>
      <trkpt lat="59.9780704" lon="17.7251271">
        <ele>22.7283</ele>
        <time>2012-04-19T19:30:10Z</time>
      </trkpt>
      <trkpt lat="59.9782238" lon="17.7251852">
        <ele>23.6896</ele>
        <time>2012-04-19T19:30:16Z</time>
      </trkpt>
      <trkpt lat="59.9783434" lon="17.7252774">
        <ele>24.1703</ele>
        <time>2012-04-19T19:30:21Z</time>
      </trkpt>
      <trkpt lat="59.9784491" lon="17.7253541">
        <ele>24.651</ele>
        <time>2012-04-19T19:30:25Z</time>
      </trkpt>
      <trkpt lat="59.9785946" lon="17.7254559">
        <ele>25.1317</ele>
        <time>2012-04-19T19:30:31Z</time>
      </trkpt>
      <trkpt lat="59.9787364" lon="17.7255528">
        <ele>26.0929</ele>
        <time>2012-04-19T19:30:37Z</time>
      </trkpt>
      <trkpt lat="59.9788341" lon="17.7256123">
        <ele>27.5349</ele>
        <time>2012-04-19T19:30:41Z</time>
      </trkpt>
      <trkpt lat="59.9789338" lon="17.7256773">
        <ele>28.9769</ele>
        <time>2012-04-19T19:30:45Z</time>
      </trkpt>
      <trkpt lat="59.9790203" lon="17.7257512">
        <ele>29.4575</ele>
        <time>2012-04-19T19:30:49Z</time>
      </trkpt>
      <trkpt lat="59.9790387" lon="17.725783">
        <ele>29.4575</ele>
        <time>2012-04-19T19:30:50Z</time>
      </trkpt>
      <trkpt lat="59.9791672" lon="17.7260201">
        <ele>30.4188</ele>
        <time>2012-04-19T19:30:57Z</time>
      </trkpt>
      <trkpt lat="59.9793121" lon="17.7262016">
        <ele>30.4188</ele>
        <time>2012-04-19T19:31:04Z</time>
      </trkpt>
      <trkpt lat="59.9794254" lon="17.7262857">
        <ele>29.9381</ele>
        <time>2012-04-19T19:31:09Z</time>
      </trkpt>
      <trkpt lat="59.9795474" lon="17.7263086">
        <ele>28.9769</ele>
        <time>2012-04-19T19:31:14Z</time>
      </trkpt>
      <trkpt lat="59.9796779" lon="17.7264119">
        <ele>29.9381</ele>
        <time>2012-04-19T19:31:20Z</time>
      </trkpt>
      <trkpt lat="59.9797579" lon="17.7266064">
        <ele>30.4188</ele>
        <time>2012-04-19T19:31:25Z</time>
      </trkpt>
      <trkpt lat="59.9798274" lon="17.7267868">
        <ele>32.3416</ele>
        <time>2012-04-19T19:31:30Z</time>
      </trkpt>
      <trkpt lat="59.9799317" lon="17.7269817">
        <ele>32.8223</ele>
        <time>2012-04-19T19:31:36Z</time>
      </trkpt>
      <trkpt lat="59.9800337" lon="17.7271831">
        <ele>32.8223</ele>
        <time>2012-04-19T19:31:42Z</time>
      </trkpt>
      <trkpt lat="59.9801191" lon="17.7273531">
        <ele>31.8607</ele>
        <time>2012-04-19T19:31:47Z</time>
      </trkpt>
      <trkpt lat="59.9801917" lon="17.7274813">
        <ele>31.8607</ele>
        <time>2012-04-19T19:31:51Z</time>
      </trkpt>
      <trkpt lat="59.9802689" lon="17.7276518">
        <ele>31.8607</ele>
        <time>2012-04-19T19:31:56Z</time>
      </trkpt>
      <trkpt lat="59.9803689" lon="17.7278475">
        <ele>33.7834</ele>
        <time>2012-04-19T19:32:02Z</time>
      </trkpt>
      <trkpt lat="59.980465" lon="17.7280218">
        <ele>34.7449</ele>
        <time>2012-04-19T19:32:07Z</time>
      </trkpt>
      <trkpt lat="59.9805533" lon="17.7281984">
        <ele>35.2255</ele>
        <time>2012-04-19T19:32:12Z</time>
      </trkpt>
      <trkpt lat="59.9806366" lon="17.7283704">
        <ele>35.2255</ele>
        <time>2012-04-19T19:32:17Z</time>
      </trkpt>
      <trkpt lat="59.9807149" lon="17.7285336">
        <ele>35.2255</ele>
        <time>2012-04-19T19:32:22Z</time>
      </trkpt>
      <trkpt lat="59.9807934" lon="17.7286957">
        <ele>34.2642</ele>
        <time>2012-04-19T19:32:27Z</time>
      </trkpt>
      <trkpt lat="59.9808242" lon="17.7287649">
        <ele>33.7834</ele>
        <time>2012-04-19T19:32:29Z</time>
      </trkpt>
      <trkpt lat="59.9809248" lon="17.7289512">
        <ele>33.7834</ele>
        <time>2012-04-19T19:32:35Z</time>
      </trkpt>
      <trkpt lat="59.981022" lon="17.7290018">
        <ele>33.7834</ele>
        <time>2012-04-19T19:32:40Z</time>
      </trkpt>
      <trkpt lat="59.9811136" lon="17.7289305">
        <ele>33.7834</ele>
        <time>2012-04-19T19:32:45Z</time>
      </trkpt>
      <trkpt lat="59.98125" lon="17.7287718">
        <ele>33.7834</ele>
        <time>2012-04-19T19:32:52Z</time>
      </trkpt>
      <trkpt lat="59.9813635" lon="17.7285922">
        <ele>32.8223</ele>
        <time>2012-04-19T19:32:58Z</time>
      </trkpt>
      <trkpt lat="59.9814458" lon="17.7284362">
        <ele>30.8995</ele>
        <time>2012-04-19T19:33:03Z</time>
      </trkpt>
      <trkpt lat="59.9815184" lon="17.7283026">
        <ele>29.4575</ele>
        <time>2012-04-19T19:33:07Z</time>
      </trkpt>
      <trkpt lat="59.9816089" lon="17.7282568">
        <ele>28.9769</ele>
        <time>2012-04-19T19:33:11Z</time>
      </trkpt>
      <trkpt lat="59.9817251" lon="17.7282089">
        <ele>29.9381</ele>
        <time>2012-04-19T19:33:16Z</time>
      </trkpt>
      <trkpt lat="59.9818104" lon="17.7281088">
        <ele>29.9381</ele>
        <time>2012-04-19T19:33:20Z</time>
      </trkpt>
      <trkpt lat="59.9819083" lon="17.7279938">
        <ele>29.4575</ele>
        <time>2012-04-19T19:33:25Z</time>
      </trkpt>
      <trkpt lat="59.9819772" lon="17.7278908">
        <ele>28.9769</ele>
        <time>2012-04-19T19:33:29Z</time>
      </trkpt>
      <trkpt lat="59.9820419" lon="17.727756">
        <ele>28.9769</ele>
        <time>2012-04-19T19:33:33Z</time>
      </trkpt>
      <trkpt lat="59.9821248" lon="17.7276087">
        <ele>29.9381</ele>
        <time>2012-04-19T19:33:38Z</time>
      </trkpt>
      <trkpt lat="59.9821543" lon="17.7275416">
        <ele>29.4575</ele>
        <time>2012-04-19T19:33:40Z</time>
      </trkpt>
      <trkpt lat="59.9822182" lon="17.7274401">
        <ele>28.0155</ele>
        <time>2012-04-19T19:33:44Z</time>
      </trkpt>
      <trkpt lat="59.9822965" lon="17.7272377">
        <ele>27.0543</ele>
        <time>2012-04-19T19:33:50Z</time>
      </trkpt>
      <trkpt lat="59.9823736" lon="17.7269873">
        <ele>27.5349</ele>
        <time>2012-04-19T19:33:56Z</time>
      </trkpt>
      <trkpt lat="59.9824559" lon="17.7268678">
        <ele>28.0155</ele>
        <time>2012-04-19T19:34:00Z</time>
      </trkpt>
      <trkpt lat="59.9825838" lon="17.726783">
        <ele>28.0155</ele>
        <time>2012-04-19T19:34:05Z</time>
      </trkpt>
      <trkpt lat="59.9827013" lon="17.7266593">
        <ele>27.0543</ele>
        <time>2012-04-19T19:34:10Z</time>
      </trkpt>
      <trkpt lat="59.9828357" lon="17.7266122">
        <ele>26.5736</ele>
        <time>2012-04-19T19:34:15Z</time>
      </trkpt>
      <trkpt lat="59.9829645" lon="17.7266147">
        <ele>27.5349</ele>
        <time>2012-04-19T19:34:20Z</time>
      </trkpt>
      <trkpt lat="59.9830751" lon="17.726622">
        <ele>28.4962</ele>
        <time>2012-04-19T19:34:24Z</time>
      </trkpt>
      <trkpt lat="59.9832065" lon="17.7265967">
        <ele>28.9769</ele>
        <time>2012-04-19T19:34:29Z</time>
      </trkpt>
      <trkpt lat="59.9833151" lon="17.7265981">
        <ele>29.4575</ele>
        <time>2012-04-19T19:34:33Z</time>
      </trkpt>
      <trkpt lat="59.9833691" lon="17.7265977">
        <ele>29.4575</ele>
        <time>2012-04-19T19:34:35Z</time>
      </trkpt>
      <trkpt lat="59.9835309" lon="17.7266253">
        <ele>30.8995</ele>
        <time>2012-04-19T19:34:41Z</time>
      </trkpt>
      <trkpt lat="59.9835583" lon="17.726634">
        <ele>31.3801</ele>
        <time>2012-04-19T19:34:42Z</time>
      </trkpt>
      <trkpt lat="59.9836791" lon="17.7266144">
        <ele>32.3416</ele>
        <time>2012-04-19T19:34:47Z</time>
      </trkpt>
      <trkpt lat="59.9837328" lon="17.726604">
        <ele>32.3416</ele>
        <time>2012-04-19T19:34:49Z</time>
      </trkpt>
      <trkpt lat="59.9837857" lon="17.7266035">
        <ele>32.8223</ele>
        <time>2012-04-19T19:34:51Z</time>
      </trkpt>
      <trkpt lat="59.983912" lon="17.7265921">
        <ele>33.7834</ele>
        <time>2012-04-19T19:34:56Z</time>
      </trkpt>
      <trkpt lat="59.9840618" lon="17.7265884">
        <ele>34.2642</ele>
        <time>2012-04-19T19:35:02Z</time>
      </trkpt>
      <trkpt lat="59.9841641" lon="17.7266049">
        <ele>34.2642</ele>
        <time>2012-04-19T19:35:06Z</time>
      </trkpt>
      <trkpt lat="59.9842999" lon="17.7265699">
        <ele>34.7449</ele>
        <time>2012-04-19T19:35:11Z</time>
      </trkpt>
      <trkpt lat="59.9843498" lon="17.7265817">
        <ele>35.2255</ele>
        <time>2012-04-19T19:35:13Z</time>
      </trkpt>
      <trkpt lat="59.9844809" lon="17.7265857">
        <ele>36.6675</ele>
        <time>2012-04-19T19:35:18Z</time>
      </trkpt>
      <trkpt lat="59.9846046" lon="17.7265766">
        <ele>38.5901</ele>
        <time>2012-04-19T19:35:23Z</time>
      </trkpt>
      <trkpt lat="59.9846307" lon="17.7265805">
        <ele>39.0707</ele>
        <time>2012-04-19T19:35:24Z</time>
      </trkpt>
      <trkpt lat="59.9847237" lon="17.7265636">
        <ele>39.5513</ele>
        <time>2012-04-19T19:35:28Z</time>
      </trkpt>
      <trkpt lat="59.9848699" lon="17.7265579">
        <ele>38.1094</ele>
        <time>2012-04-19T19:35:34Z</time>
      </trkpt>
      <trkpt lat="59.9849983" lon="17.726546">
        <ele>36.6675</ele>
        <time>2012-04-19T19:35:39Z</time>
      </trkpt>
      <trkpt lat="59.9850935" lon="17.7265553">
        <ele>36.1868</ele>
        <time>2012-04-19T19:35:43Z</time>
      </trkpt>
      <trkpt lat="59.9851936" lon="17.7265614">
        <ele>36.1868</ele>
        <time>2012-04-19T19:35:47Z</time>
      </trkpt>
      <trkpt lat="59.9853148" lon="17.7265652">
        <ele>35.7061</ele>
        <time>2012-04-19T19:35:52Z</time>
      </trkpt>
      <trkpt lat="59.9854331" lon="17.7265561">
        <ele>34.2642</ele>
        <time>2012-04-19T19:35:57Z</time>
      </trkpt>
      <trkpt lat="59.9855841" lon="17.7265394">
        <ele>32.3416</ele>
        <time>2012-04-19T19:36:03Z</time>
      </trkpt>
      <trkpt lat="59.9857035" lon="17.7265424">
        <ele>30.4188</ele>
        <time>2012-04-19T19:36:08Z</time>
      </trkpt>
      <trkpt lat="59.9857987" lon="17.7265527">
        <ele>28.0155</ele>
        <time>2012-04-19T19:36:12Z</time>
      </trkpt>
      <trkpt lat="59.9858929" lon="17.7265413">
        <ele>27.0543</ele>
        <time>2012-04-19T19:36:16Z</time>
      </trkpt>
      <trkpt lat="59.9860147" lon="17.7265256">
        <ele>25.6123</ele>
        <time>2012-04-19T19:36:21Z</time>
      </trkpt>
      <trkpt lat="59.986086" lon="17.7265313">
        <ele>24.1703</ele>
        <time>2012-04-19T19:36:24Z</time>
      </trkpt>
      <trkpt lat="59.9861339" lon="17.7265372">
        <ele>24.1703</ele>
        <time>2012-04-19T19:36:26Z</time>
      </trkpt>
      <trkpt lat="59.9862784" lon="17.7265651">
        <ele>24.651</ele>
        <time>2012-04-19T19:36:32Z</time>
      </trkpt>
      <trkpt lat="59.9864244" lon="17.7265755">
        <ele>23.6896</ele>
        <time>2012-04-19T19:36:38Z</time>
      </trkpt>
      <trkpt lat="59.9865472" lon="17.7265608">
        <ele>24.651</ele>
        <time>2012-04-19T19:36:43Z</time>
      </trkpt>
      <trkpt lat="59.9865715" lon="17.7265655">
        <ele>24.651</ele>
        <time>2012-04-19T19:36:44Z</time>
      </trkpt>
      <trkpt lat="59.9867171" lon="17.7265442">
        <ele>24.1703</ele>
        <time>2012-04-19T19:36:50Z</time>
      </trkpt>
      <trkpt lat="59.9868129" lon="17.7265538">
        <ele>23.6896</ele>
        <time>2012-04-19T19:36:54Z</time>
      </trkpt>
      <trkpt lat="59.986891" lon="17.7265591">
        <ele>24.1703</ele>
        <time>2012-04-19T19:36:57Z</time>
      </trkpt>
      <trkpt lat="59.9869936" lon="17.7265544">
        <ele>24.1703</ele>
        <time>2012-04-19T19:37:01Z</time>
      </trkpt>
      <trkpt lat="59.987149" lon="17.7265489">
        <ele>24.1703</ele>
        <time>2012-04-19T19:37:07Z</time>
      </trkpt>
      <trkpt lat="59.9872973" lon="17.7265464">
        <ele>25.1317</ele>
        <time>2012-04-19T19:37:13Z</time>
      </trkpt>
      <trkpt lat="59.9874567" lon="17.7265243">
        <ele>27.0543</ele>
        <time>2012-04-19T19:37:19Z</time>
      </trkpt>
      <trkpt lat="59.9875542" lon="17.7265226">
        <ele>29.4575</ele>
        <time>2012-04-19T19:37:23Z</time>
      </trkpt>
      <trkpt lat="59.98771" lon="17.7265292">
        <ele>29.9381</ele>
        <time>2012-04-19T19:37:29Z</time>
      </trkpt>
      <trkpt lat="59.9878057" lon="17.7265342">
        <ele>29.9381</ele>
        <time>2012-04-19T19:37:33Z</time>
      </trkpt>
      <trkpt lat="59.9879292" lon="17.7265486">
        <ele>31.3801</ele>
        <time>2012-04-19T19:37:38Z</time>
      </trkpt>
      <trkpt lat="59.9880402" lon="17.7265444">
        <ele>30.8995</ele>
        <time>2012-04-19T19:37:43Z</time>
      </trkpt>
      <trkpt lat="59.9880831" lon="17.7265522">
        <ele>31.3801</ele>
        <time>2012-04-19T19:37:45Z</time>
      </trkpt>
      <trkpt lat="59.9881976" lon="17.7265349">
        <ele>31.8607</ele>
        <time>2012-04-19T19:37:50Z</time>
      </trkpt>
      <trkpt lat="59.9882473" lon="17.7265435">
        <ele>31.8607</ele>
        <time>2012-04-19T19:37:52Z</time>
      </trkpt>
      <trkpt lat="59.9883964" lon="17.7265372">
        <ele>32.8223</ele>
        <time>2012-04-19T19:37:58Z</time>
      </trkpt>
      <trkpt lat="59.9885062" lon="17.7265385">
        <ele>34.2642</ele>
        <time>2012-04-19T19:38:03Z</time>
      </trkpt>
      <trkpt lat="59.9886431" lon="17.7265377">
        <ele>34.7449</ele>
        <time>2012-04-19T19:38:08Z</time>
      </trkpt>
      <trkpt lat="59.9887457" lon="17.7265413">
        <ele>35.2255</ele>
        <time>2012-04-19T19:38:12Z</time>
      </trkpt>
      <trkpt lat="59.9888431" lon="17.7265176">
        <ele>35.2255</ele>
        <time>2012-04-19T19:38:16Z</time>
      </trkpt>
      <trkpt lat="59.9889175" lon="17.7265169">
        <ele>35.7061</ele>
        <time>2012-04-19T19:38:19Z</time>
      </trkpt>
      <trkpt lat="59.9890451" lon="17.7265149">
        <ele>35.2255</ele>
        <time>2012-04-19T19:38:24Z</time>
      </trkpt>
      <trkpt lat="59.9891485" lon="17.726531">
        <ele>35.7061</ele>
        <time>2012-04-19T19:38:28Z</time>
      </trkpt>
      <trkpt lat="59.9891968" lon="17.7265284">
        <ele>36.1868</ele>
        <time>2012-04-19T19:38:30Z</time>
      </trkpt>
      <trkpt lat="59.9893139" lon="17.7264973">
        <ele>34.7449</ele>
        <time>2012-04-19T19:38:35Z</time>
      </trkpt>
      <trkpt lat="59.9893881" lon="17.726506">
        <ele>35.2255</ele>
        <time>2012-04-19T19:38:38Z</time>
      </trkpt>
      <trkpt lat="59.9894997" lon="17.7265204">
        <ele>34.7449</ele>
        <time>2012-04-19T19:38:43Z</time>
      </trkpt>
      <trkpt lat="59.9896024" lon="17.7264859">
        <ele>32.3416</ele>
        <time>2012-04-19T19:38:48Z</time>
      </trkpt>
      <trkpt lat="59.9896423" lon="17.72646">
        <ele>32.3416</ele>
        <time>2012-04-19T19:38:50Z</time>
      </trkpt>
      <trkpt lat="59.9896547" lon="17.7265974">
        <ele>30.8995</ele>
        <time>2012-04-19T19:38:54Z</time>
      </trkpt>
      <trkpt lat="59.98965" lon="17.7266458">
        <ele>30.8995</ele>
        <time>2012-04-19T19:38:55Z</time>
      </trkpt>
      <trkpt lat="59.9896227" lon="17.7269385">
        <ele>26.5736</ele>
        <time>2012-04-19T19:39:01Z</time>
      </trkpt>
      <trkpt lat="59.9896086" lon="17.7271697">
        <ele>26.0929</ele>
        <time>2012-04-19T19:39:06Z</time>
      </trkpt>
      <trkpt lat="59.9895873" lon="17.7274422">
        <ele>25.6123</ele>
        <time>2012-04-19T19:39:11Z</time>
      </trkpt>
      <trkpt lat="59.9895703" lon="17.7276344">
        <ele>26.0929</ele>
        <time>2012-04-19T19:39:15Z</time>
      </trkpt>
      <trkpt lat="59.9895738" lon="17.727869">
        <ele>26.5736</ele>
        <time>2012-04-19T19:39:20Z</time>
      </trkpt>
      <trkpt lat="59.9895579" lon="17.7281135">
        <ele>25.1317</ele>
        <time>2012-04-19T19:39:25Z</time>
      </trkpt>
      <trkpt lat="59.9895478" lon="17.7284192">
        <ele>25.1317</ele>
        <time>2012-04-19T19:39:31Z</time>
      </trkpt>
      <trkpt lat="59.9895371" lon="17.7285626">
        <ele>26.0929</ele>
        <time>2012-04-19T19:39:34Z</time>
      </trkpt>
      <trkpt lat="59.9894961" lon="17.7287139">
        <ele>27.5349</ele>
        <time>2012-04-19T19:39:38Z</time>
      </trkpt>
      <trkpt lat="59.9893817" lon="17.7289604">
        <ele>29.9381</ele>
        <time>2012-04-19T19:39:44Z</time>
      </trkpt>
      <trkpt lat="59.9892873" lon="17.7291193">
        <ele>31.8607</ele>
        <time>2012-04-19T19:39:49Z</time>
      </trkpt>
      <trkpt lat="59.9892175" lon="17.7292226">
        <ele>33.3029</ele>
        <time>2012-04-19T19:39:53Z</time>
      </trkpt>
      <trkpt lat="59.9891417" lon="17.7292983">
        <ele>33.3029</ele>
        <time>2012-04-19T19:39:57Z</time>
      </trkpt>
      <trkpt lat="59.989047" lon="17.7294394">
        <ele>34.7449</ele>
        <time>2012-04-19T19:40:01Z</time>
      </trkpt>
      <trkpt lat="59.9889834" lon="17.7295271">
        <ele>36.1868</ele>
        <time>2012-04-19T19:40:04Z</time>
      </trkpt>
      <trkpt lat="59.988905" lon="17.7295811">
        <ele>38.5901</ele>
        <time>2012-04-19T19:40:08Z</time>
      </trkpt>
      <trkpt lat="59.9888382" lon="17.7296678">
        <ele>41.474</ele>
        <time>2012-04-19T19:40:11Z</time>
      </trkpt>
      <trkpt lat="59.9887553" lon="17.7298078">
        <ele>43.3966</ele>
        <time>2012-04-19T19:40:15Z</time>
      </trkpt>
      <trkpt lat="59.9886451" lon="17.7299778">
        <ele>43.3966</ele>
        <time>2012-04-19T19:40:20Z</time>
      </trkpt>
      <trkpt lat="59.9886042" lon="17.730013">
        <ele>42.4354</ele>
        <time>2012-04-19T19:40:22Z</time>
      </trkpt>
      <trkpt lat="59.988544" lon="17.7300698">
        <ele>40.9934</ele>
        <time>2012-04-19T19:40:25Z</time>
      </trkpt>
      <trkpt lat="59.9885011" lon="17.7301183">
        <ele>40.5128</ele>
        <time>2012-04-19T19:40:27Z</time>
      </trkpt>
      <trkpt lat="59.9883735" lon="17.7302758">
        <ele>38.1094</ele>
        <time>2012-04-19T19:40:33Z</time>
      </trkpt>
      <trkpt lat="59.9882956" lon="17.730368">
        <ele>36.6675</ele>
        <time>2012-04-19T19:40:37Z</time>
      </trkpt>
      <trkpt lat="59.9882176" lon="17.7304926">
        <ele>35.2255</ele>
        <time>2012-04-19T19:40:41Z</time>
      </trkpt>
      <trkpt lat="59.9881732" lon="17.7305414">
        <ele>35.2255</ele>
        <time>2012-04-19T19:40:44Z</time>
      </trkpt>
      <trkpt lat="59.9881164" lon="17.7306694">
        <ele>34.2642</ele>
        <time>2012-04-19T19:40:47Z</time>
      </trkpt>
      <trkpt lat="59.9880135" lon="17.7308388">
        <ele>32.3416</ele>
        <time>2012-04-19T19:40:52Z</time>
      </trkpt>
      <trkpt lat="59.9879689" lon="17.7309341">
        <ele>31.8607</ele>
        <time>2012-04-19T19:40:55Z</time>
      </trkpt>
      <trkpt lat="59.9878843" lon="17.7311041">
        <ele>31.8607</ele>
        <time>2012-04-19T19:41:00Z</time>
      </trkpt>
      <trkpt lat="59.9877936" lon="17.7312713">
        <ele>32.3416</ele>
        <time>2012-04-19T19:41:05Z</time>
      </trkpt>
      <trkpt lat="59.9876999" lon="17.7314188">
        <ele>32.8223</ele>
        <time>2012-04-19T19:41:10Z</time>
      </trkpt>
      <trkpt lat="59.987633" lon="17.7315283">
        <ele>32.8223</ele>
        <time>2012-04-19T19:41:14Z</time>
      </trkpt>
      <trkpt lat="59.9875485" lon="17.7316815">
        <ele>32.3416</ele>
        <time>2012-04-19T19:41:18Z</time>
      </trkpt>
      <trkpt lat="59.9875307" lon="17.7317083">
        <ele>31.3801</ele>
        <time>2012-04-19T19:41:19Z</time>
      </trkpt>
      <trkpt lat="59.9874372" lon="17.7318723">
        <ele>32.3416</ele>
        <time>2012-04-19T19:41:25Z</time>
      </trkpt>
      <trkpt lat="59.98739" lon="17.7319726">
        <ele>34.2642</ele>
        <time>2012-04-19T19:41:28Z</time>
      </trkpt>
      <trkpt lat="59.9873128" lon="17.732229">
        <ele>35.7061</ele>
        <time>2012-04-19T19:41:34Z</time>
      </trkpt>
      <trkpt lat="59.9872624" lon="17.7324886">
        <ele>36.6675</ele>
        <time>2012-04-19T19:41:39Z</time>
      </trkpt>
      <trkpt lat="59.9872204" lon="17.7327414">
        <ele>37.1481</ele>
        <time>2012-04-19T19:41:44Z</time>
      </trkpt>
      <trkpt lat="59.9872092" lon="17.7327904">
        <ele>37.1481</ele>
        <time>2012-04-19T19:41:45Z</time>
      </trkpt>
      <trkpt lat="59.9871443" lon="17.7330309">
        <ele>34.7449</ele>
        <time>2012-04-19T19:41:51Z</time>
      </trkpt>
      <trkpt lat="59.9871052" lon="17.7332081">
        <ele>34.2642</ele>
        <time>2012-04-19T19:41:55Z</time>
      </trkpt>
      <trkpt lat="59.9870959" lon="17.7332509">
        <ele>34.2642</ele>
        <time>2012-04-19T19:41:56Z</time>
      </trkpt>
      <trkpt lat="59.9870418" lon="17.7334516">
        <ele>34.2642</ele>
        <time>2012-04-19T19:42:01Z</time>
      </trkpt>
      <trkpt lat="59.986972" lon="17.7337136">
        <ele>35.7061</ele>
        <time>2012-04-19T19:42:07Z</time>
      </trkpt>
      <trkpt lat="59.9869279" lon="17.733877">
        <ele>35.2255</ele>
        <time>2012-04-19T19:42:11Z</time>
      </trkpt>
      <trkpt lat="59.9868688" lon="17.7341162">
        <ele>34.7449</ele>
        <time>2012-04-19T19:42:16Z</time>
      </trkpt>
      <trkpt lat="59.9868102" lon="17.7343589">
        <ele>33.7834</ele>
        <time>2012-04-19T19:42:21Z</time>
      </trkpt>
      <trkpt lat="59.9867675" lon="17.7345916">
        <ele>31.8607</ele>
        <time>2012-04-19T19:42:26Z</time>
      </trkpt>
      <trkpt lat="59.9866954" lon="17.7348557">
        <ele>30.4188</ele>
        <time>2012-04-19T19:42:32Z</time>
      </trkpt>
      <trkpt lat="59.9866431" lon="17.7350803">
        <ele>29.4575</ele>
        <time>2012-04-19T19:42:37Z</time>
      </trkpt>
      <trkpt lat="59.9865913" lon="17.735282">
        <ele>29.9381</ele>
        <time>2012-04-19T19:42:42Z</time>
      </trkpt>
      <trkpt lat="59.986561" lon="17.7355671">
        <ele>31.8607</ele>
        <time>2012-04-19T19:42:47Z</time>
      </trkpt>
      <trkpt lat="59.9865142" lon="17.7357971">
        <ele>33.3029</ele>
        <time>2012-04-19T19:42:52Z</time>
      </trkpt>
      <trkpt lat="59.9865058" lon="17.7358431">
        <ele>32.8223</ele>
        <time>2012-04-19T19:42:53Z</time>
      </trkpt>
      <trkpt lat="59.9864629" lon="17.7359762">
        <ele>34.2642</ele>
        <time>2012-04-19T19:42:57Z</time>
      </trkpt>
      <trkpt lat="59.9864202" lon="17.7361105">
        <ele>35.2255</ele>
        <time>2012-04-19T19:43:00Z</time>
      </trkpt>
      <trkpt lat="59.9863219" lon="17.7363051">
        <ele>36.6675</ele>
        <time>2012-04-19T19:43:06Z</time>
      </trkpt>
      <trkpt lat="59.9862329" lon="17.7365032">
        <ele>39.0707</ele>
        <time>2012-04-19T19:43:11Z</time>
      </trkpt>
      <trkpt lat="59.986124" lon="17.7366337">
        <ele>40.0321</ele>
        <time>2012-04-19T19:43:16Z</time>
      </trkpt>
      <trkpt lat="59.9861096" lon="17.736658">
        <ele>41.9547</ele>
        <time>2012-04-19T19:43:17Z</time>
      </trkpt>
      <trkpt lat="59.9860204" lon="17.7368623">
        <ele>46.2806</ele>
        <time>2012-04-19T19:43:21Z</time>
      </trkpt>
      <trkpt lat="59.9859651" lon="17.7369571">
        <ele>49.1646</ele>
        <time>2012-04-19T19:43:24Z</time>
      </trkpt>
      <trkpt lat="59.985954" lon="17.7369845">
        <ele>50.6066</ele>
        <time>2012-04-19T19:43:25Z</time>
      </trkpt>
      <trkpt lat="59.9858839" lon="17.7370994">
        <ele>55.4131</ele>
        <time>2012-04-19T19:43:30Z</time>
      </trkpt>
      <trkpt lat="59.9858347" lon="17.7371606">
        <ele>56.3745</ele>
        <time>2012-04-19T19:43:34Z</time>
      </trkpt>
      <trkpt lat="59.9857667" lon="17.7373284">
        <ele>56.8551</ele>
        <time>2012-04-19T19:43:38Z</time>
      </trkpt>
      <trkpt lat="59.9856806" lon="17.7374905">
        <ele>58.2971</ele>
        <time>2012-04-19T19:43:42Z</time>
      </trkpt>
      <trkpt lat="59.9856187" lon="17.7376692">
        <ele>58.2971</ele>
        <time>2012-04-19T19:43:46Z</time>
      </trkpt>
      <trkpt lat="59.985583" lon="17.7378069">
        <ele>55.8938</ele>
        <time>2012-04-19T19:43:50Z</time>
      </trkpt>
      <trkpt lat="59.9855759" lon="17.7380074">
        <ele>56.3745</ele>
        <time>2012-04-19T19:43:55Z</time>
      </trkpt>
      <trkpt lat="59.9855754" lon="17.7380382">
        <ele>56.3745</ele>
        <time>2012-04-19T19:43:56Z</time>
      </trkpt>
      <trkpt lat="59.9854921" lon="17.7381893">
        <ele>53.0098</ele>
        <time>2012-04-19T19:44:01Z</time>
      </trkpt>
      <trkpt lat="59.9854203" lon="17.738288">
        <ele>55.8938</ele>
        <time>2012-04-19T19:44:05Z</time>
      </trkpt>
      <trkpt lat="59.9853074" lon="17.7383034">
        <ele>55.8938</ele>
        <time>2012-04-19T19:44:09Z</time>
      </trkpt>
      <trkpt lat="59.9852668" lon="17.7383074">
        <ele>56.8551</ele>
        <time>2012-04-19T19:44:11Z</time>
      </trkpt>
      <trkpt lat="59.9851278" lon="17.738326">
        <ele>57.8165</ele>
        <time>2012-04-19T19:44:17Z</time>
      </trkpt>
      <trkpt lat="59.9849709" lon="17.7383799">
        <ele>61.181</ele>
        <time>2012-04-19T19:44:23Z</time>
      </trkpt>
      <trkpt lat="59.9848554" lon="17.738364">
        <ele>63.1036</ele>
        <time>2012-04-19T19:44:27Z</time>
      </trkpt>
      <trkpt lat="59.9847866" lon="17.7383343">
        <ele>63.1036</ele>
        <time>2012-04-19T19:44:31Z</time>
      </trkpt>
      <trkpt lat="59.9846571" lon="17.7383028">
        <ele>63.1036</ele>
        <time>2012-04-19T19:44:37Z</time>
      </trkpt>
      <trkpt lat="59.9845892" lon="17.7382722">
        <ele>63.5844</ele>
        <time>2012-04-19T19:44:40Z</time>
      </trkpt>
      <trkpt lat="59.9844908" lon="17.7382354">
        <ele>65.0264</ele>
        <time>2012-04-19T19:44:45Z</time>
      </trkpt>
      <trkpt lat="59.9843442" lon="17.7382043">
        <ele>67.4297</ele>
        <time>2012-04-19T19:44:50Z</time>
      </trkpt>
      <trkpt lat="59.9841953" lon="17.7382017">
        <ele>67.4297</ele>
        <time>2012-04-19T19:44:55Z</time>
      </trkpt>
      <trkpt lat="59.9840605" lon="17.7382526">
        <ele>67.9103</ele>
        <time>2012-04-19T19:45:00Z</time>
      </trkpt>
      <trkpt lat="59.9839401" lon="17.7382384">
        <ele>65.9877</ele>
        <time>2012-04-19T19:45:05Z</time>
      </trkpt>
      <trkpt lat="59.9838074" lon="17.7382837">
        <ele>65.5071</ele>
        <time>2012-04-19T19:45:10Z</time>
      </trkpt>
      <trkpt lat="59.9836702" lon="17.7382904">
        <ele>65.9877</ele>
        <time>2012-04-19T19:45:15Z</time>
      </trkpt>
      <trkpt lat="59.9835572" lon="17.7383096">
        <ele>65.0264</ele>
        <time>2012-04-19T19:45:20Z</time>
      </trkpt>
      <trkpt lat="59.9835329" lon="17.7383012">
        <ele>65.0264</ele>
        <time>2012-04-19T19:45:21Z</time>
      </trkpt>
      <trkpt lat="59.9833805" lon="17.7383653">
        <ele>69.3523</ele>
        <time>2012-04-19T19:45:27Z</time>
      </trkpt>
      <trkpt lat="59.9833072" lon="17.7384027">
        <ele>69.8329</ele>
        <time>2012-04-19T19:45:30Z</time>
      </trkpt>
      <trkpt lat="59.983092" lon="17.7384163">
        <ele>68.8716</ele>
        <time>2012-04-19T19:45:36Z</time>
      </trkpt>
      <trkpt lat="59.9829454" lon="17.7383959">
        <ele>66.949</ele>
        <time>2012-04-19T19:45:41Z</time>
      </trkpt>
      <trkpt lat="59.9828582" lon="17.7383846">
        <ele>66.949</ele>
        <time>2012-04-19T19:45:45Z</time>
      </trkpt>
      <trkpt lat="59.9827622" lon="17.7383286">
        <ele>64.0651</ele>
        <time>2012-04-19T19:45:50Z</time>
      </trkpt>
      <trkpt lat="59.9826636" lon="17.7382964">
        <ele>62.1423</ele>
        <time>2012-04-19T19:45:54Z</time>
      </trkpt>
      <trkpt lat="59.9825456" lon="17.7382819">
        <ele>63.1036</ele>
        <time>2012-04-19T19:46:00Z</time>
      </trkpt>
      <trkpt lat="59.9824703" lon="17.7382917">
        <ele>63.1036</ele>
        <time>2012-04-19T19:46:03Z</time>
      </trkpt>
      <trkpt lat="59.982304" lon="17.7383862">
        <ele>64.0651</ele>
        <time>2012-04-19T19:46:09Z</time>
      </trkpt>
      <trkpt lat="59.9821921" lon="17.7384804">
        <ele>66.949</ele>
        <time>2012-04-19T19:46:13Z</time>
      </trkpt>
      <trkpt lat="59.98214" lon="17.7385382">
        <ele>68.3909</ele>
        <time>2012-04-19T19:46:15Z</time>
      </trkpt>
      <trkpt lat="59.9820132" lon="17.738516">
        <ele>67.4297</ele>
        <time>2012-04-19T19:46:20Z</time>
      </trkpt>
      <trkpt lat="59.981959" lon="17.7385388">
        <ele>67.9103</ele>
        <time>2012-04-19T19:46:22Z</time>
      </trkpt>
      <trkpt lat="59.9818376" lon="17.7385949">
        <ele>70.7942</ele>
        <time>2012-04-19T19:46:27Z</time>
      </trkpt>
      <trkpt lat="59.9817494" lon="17.7385792">
        <ele>69.8329</ele>
        <time>2012-04-19T19:46:31Z</time>
      </trkpt>
      <trkpt lat="59.9816374" lon="17.7385814">
        <ele>67.4297</ele>
        <time>2012-04-19T19:46:36Z</time>
      </trkpt>
      <trkpt lat="59.9815137" lon="17.738646">
        <ele>65.5071</ele>
        <time>2012-04-19T19:46:40Z</time>
      </trkpt>
      <trkpt lat="59.9813586" lon="17.7387235">
        <ele>66.4683</ele>
        <time>2012-04-19T19:46:46Z</time>
      </trkpt>
      <trkpt lat="59.9812412" lon="17.738788">
        <ele>66.949</ele>
        <time>2012-04-19T19:46:50Z</time>
      </trkpt>
      <trkpt lat="59.9810968" lon="17.7388073">
        <ele>62.6229</ele>
        <time>2012-04-19T19:46:55Z</time>
      </trkpt>
      <trkpt lat="59.9809632" lon="17.7388347">
        <ele>62.1423</ele>
        <time>2012-04-19T19:47:00Z</time>
      </trkpt>
      <trkpt lat="59.9808469" lon="17.7388285">
        <ele>62.6229</ele>
        <time>2012-04-19T19:47:04Z</time>
      </trkpt>
      <trkpt lat="59.9807842" lon="17.7388284">
        <ele>61.181</ele>
        <time>2012-04-19T19:47:06Z</time>
      </trkpt>
      <trkpt lat="59.9806505" lon="17.7388836">
        <ele>58.7777</ele>
        <time>2012-04-19T19:47:11Z</time>
      </trkpt>
      <trkpt lat="59.9805388" lon="17.7389169">
        <ele>60.2197</ele>
        <time>2012-04-19T19:47:15Z</time>
      </trkpt>
      <trkpt lat="59.98039" lon="17.7388975">
        <ele>55.8938</ele>
        <time>2012-04-19T19:47:20Z</time>
      </trkpt>
      <trkpt lat="59.9803622" lon="17.7388932">
        <ele>54.9324</ele>
        <time>2012-04-19T19:47:21Z</time>
      </trkpt>
      <trkpt lat="59.9801781" lon="17.7388983">
        <ele>50.6066</ele>
        <time>2012-04-19T19:47:27Z</time>
      </trkpt>
      <trkpt lat="59.9800227" lon="17.7388938">
        <ele>48.2034</ele>
        <time>2012-04-19T19:47:32Z</time>
      </trkpt>
      <trkpt lat="59.9798882" lon="17.7388834">
        <ele>45.7999</ele>
        <time>2012-04-19T19:47:36Z</time>
      </trkpt>
      <trkpt lat="59.9797797" lon="17.7388812">
        <ele>44.358</ele>
        <time>2012-04-19T19:47:41Z</time>
      </trkpt>
      <trkpt lat="59.9796554" lon="17.7389148">
        <ele>43.8773</ele>
        <time>2012-04-19T19:47:45Z</time>
      </trkpt>
      <trkpt lat="59.9795105" lon="17.7389953">
        <ele>44.358</ele>
        <time>2012-04-19T19:47:50Z</time>
      </trkpt>
      <trkpt lat="59.9793981" lon="17.7390606">
        <ele>44.358</ele>
        <time>2012-04-19T19:47:54Z</time>
      </trkpt>
      <trkpt lat="59.979257" lon="17.7391772">
        <ele>45.3192</ele>
        <time>2012-04-19T19:47:59Z</time>
      </trkpt>
      <trkpt lat="59.9791398" lon="17.7392503">
        <ele>43.8773</ele>
        <time>2012-04-19T19:48:03Z</time>
      </trkpt>
      <trkpt lat="59.9790165" lon="17.739303">
        <ele>43.3966</ele>
        <time>2012-04-19T19:48:07Z</time>
      </trkpt>
      <trkpt lat="59.9789875" lon="17.7393186">
        <ele>43.8773</ele>
        <time>2012-04-19T19:48:08Z</time>
      </trkpt>
      <trkpt lat="59.9789616" lon="17.7393331">
        <ele>43.8773</ele>
        <time>2012-04-19T19:48:09Z</time>
      </trkpt>
    </trkseg>
  </trk>
</gpx>